sensor_id;sensor_type;location;lat;lon;timestamp;temperature;humidity
52941;DHT22;62001;53.366;6.636;2022-07-05T00:02:08;12.80;99.90
52941;DHT22;62001;53.366;6.636;2022-07-05T00:04:33;12.80;99.90
52941;DHT22;62001;53.366;6.636;2022-07-05T00:06:59;12.70;99.90
52941;DHT22;62001;53.366;6.636;2022-07-05T00:09:44;12.70;99.90
52941;DHT22;62001;53.366;6.636;2022-07-05T00:12:10;12.60;99.90
52941;DHT22;62001;53.366;6.636;2022-07-05T00:14:38;12.60;99.90
52941;DHT22;62001;53.366;6.636;2022-07-05T00:17:04;12.70;99.90
52941;DHT22;62001;53.366;6.636;2022-07-05T00:19:31;12.70;99.90
52941;DHT22;62001;53.366;6.636;2022-07-05T00:21:56;12.70;99.90
52941;DHT22;62001;53.366;6.636;2022-07-05T00:24:23;12.70;99.90
52941;DHT22;62001;53.366;6.636;2022-07-05T00:26:49;12.70;99.90
52941;DHT22;62001;53.366;6.636;2022-07-05T00:29:15;12.70;99.90
52941;DHT22;62001;53.366;6.636;2022-07-05T00:31:40;12.70;99.90
52941;DHT22;62001;53.366;6.636;2022-07-05T00:34:06;12.80;99.90
52941;DHT22;62001;53.366;6.636;2022-07-05T00:36:32;12.80;99.90
52941;DHT22;62001;53.366;6.636;2022-07-05T00:38:58;12.80;99.90
52941;DHT22;62001;53.366;6.636;2022-07-05T00:41:24;12.80;99.90
52941;DHT22;62001;53.366;6.636;2022-07-05T00:43:55;12.90;99.90
52941;DHT22;62001;53.366;6.636;2022-07-05T00:46:21;12.90;99.90
52941;DHT22;62001;53.366;6.636;2022-07-05T00:48:48;12.90;99.90
52941;DHT22;62001;53.366;6.636;2022-07-05T00:51:14;13.00;99.90
52941;DHT22;62001;53.366;6.636;2022-07-05T00:53:40;13.00;99.90
52941;DHT22;62001;53.366;6.636;2022-07-05T00:56:06;13.00;99.90
52941;DHT22;62001;53.366;6.636;2022-07-05T00:58:33;13.00;99.90
52941;DHT22;62001;53.366;6.636;2022-07-05T01:01:02;13.00;99.90
52941;DHT22;62001;53.366;6.636;2022-07-05T01:03:28;13.00;99.90
52941;DHT22;62001;53.366;6.636;2022-07-05T01:05:55;12.90;99.90
52941;DHT22;62001;53.366;6.636;2022-07-05T01:08:22;12.90;99.90
52941;DHT22;62001;53.366;6.636;2022-07-05T01:10:50;12.90;99.90
52941;DHT22;62001;53.366;6.636;2022-07-05T01:13:17;12.90;99.90
52941;DHT22;62001;53.366;6.636;2022-07-05T01:15:43;12.80;99.90
52941;DHT22;62001;53.366;6.636;2022-07-05T01:18:10;12.80;99.90
52941;DHT22;62001;53.366;6.636;2022-07-05T01:20:36;12.70;99.90
52941;DHT22;62001;53.366;6.636;2022-07-05T01:23:03;12.70;99.90
52941;DHT22;62001;53.366;6.636;2022-07-05T01:25:30;12.70;99.90
52941;DHT22;62001;53.366;6.636;2022-07-05T01:27:58;12.70;99.90
52941;DHT22;62001;53.366;6.636;2022-07-05T01:30:24;12.70;99.90
52941;DHT22;62001;53.366;6.636;2022-07-05T01:32:51;12.70;99.90
52941;DHT22;62001;53.366;6.636;2022-07-05T01:35:19;12.70;99.90
52941;DHT22;62001;53.366;6.636;2022-07-05T01:37:50;12.60;99.90
52941;DHT22;62001;53.366;6.636;2022-07-05T01:40:17;12.60;99.90
52941;DHT22;62001;53.366;6.636;2022-07-05T01:42:43;12.60;99.90
52941;DHT22;62001;53.366;6.636;2022-07-05T01:45:10;12.60;99.90
52941;DHT22;62001;53.366;6.636;2022-07-05T01:47:37;12.60;99.90
52941;DHT22;62001;53.366;6.636;2022-07-05T01:50:05;12.70;99.90
52941;DHT22;62001;53.366;6.636;2022-07-05T01:52:32;12.60;99.90
52941;DHT22;62001;53.366;6.636;2022-07-05T01:54:59;12.60;99.90
52941;DHT22;62001;53.366;6.636;2022-07-05T01:57:27;12.60;99.90
52941;DHT22;62001;53.366;6.636;2022-07-05T01:59:53;12.50;99.90
52941;DHT22;62001;53.366;6.636;2022-07-05T02:02:19;12.50;99.90
52941;DHT22;62001;53.366;6.636;2022-07-05T02:04:45;12.40;99.90
52941;DHT22;62001;53.366;6.636;2022-07-05T02:07:10;12.40;99.90
52941;DHT22;62001;53.366;6.636;2022-07-05T02:09:37;12.30;99.90
52941;DHT22;62001;53.366;6.636;2022-07-05T02:12:04;12.30;99.90
52941;DHT22;62001;53.366;6.636;2022-07-05T02:14:30;12.20;99.90
52941;DHT22;62001;53.366;6.636;2022-07-05T02:16:56;12.20;99.90
52941;DHT22;62001;53.366;6.636;2022-07-05T02:19:22;12.20;99.90
52941;DHT22;62001;53.366;6.636;2022-07-05T02:21:48;12.10;99.90
52941;DHT22;62001;53.366;6.636;2022-07-05T02:24:14;12.10;99.90
52941;DHT22;62001;53.366;6.636;2022-07-05T02:26:40;12.10;99.90
52941;DHT22;62001;53.366;6.636;2022-07-05T02:29:06;12.00;99.90
52941;DHT22;62001;53.366;6.636;2022-07-05T02:31:32;11.90;99.90
52941;DHT22;62001;53.366;6.636;2022-07-05T02:33:59;11.90;99.90
52941;DHT22;62001;53.366;6.636;2022-07-05T02:36:25;11.90;99.90
52941;DHT22;62001;53.366;6.636;2022-07-05T02:38:51;11.90;99.90
52941;DHT22;62001;53.366;6.636;2022-07-05T02:41:17;11.90;99.90
52941;DHT22;62001;53.366;6.636;2022-07-05T02:43:43;12.00;99.90
52941;DHT22;62001;53.366;6.636;2022-07-05T02:46:09;12.00;99.90
52941;DHT22;62001;53.366;6.636;2022-07-05T02:48:36;11.90;99.90
52941;DHT22;62001;53.366;6.636;2022-07-05T02:51:02;11.90;99.90
52941;DHT22;62001;53.366;6.636;2022-07-05T02:53:29;11.80;99.90
52941;DHT22;62001;53.366;6.636;2022-07-05T02:55:55;11.80;99.90
52941;DHT22;62001;53.366;6.636;2022-07-05T02:58:21;11.70;99.90
52941;DHT22;62001;53.366;6.636;2022-07-05T03:00:48;11.70;99.90
52941;DHT22;62001;53.366;6.636;2022-07-05T03:03:15;11.70;99.90
52941;DHT22;62001;53.366;6.636;2022-07-05T03:05:41;11.70;99.90
52941;DHT22;62001;53.366;6.636;2022-07-05T03:08:07;11.60;99.90
52941;DHT22;62001;53.366;6.636;2022-07-05T03:10:33;11.60;99.90
52941;DHT22;62001;53.366;6.636;2022-07-05T03:13:00;11.60;99.90
52941;DHT22;62001;53.366;6.636;2022-07-05T03:15:26;11.60;99.90
52941;DHT22;62001;53.366;6.636;2022-07-05T03:17:52;11.60;99.90
52941;DHT22;62001;53.366;6.636;2022-07-05T03:20:18;11.60;99.90
52941;DHT22;62001;53.366;6.636;2022-07-05T03:22:44;11.60;99.90
52941;DHT22;62001;53.366;6.636;2022-07-05T03:25:09;11.60;99.90
52941;DHT22;62001;53.366;6.636;2022-07-05T03:27:35;11.60;99.90
52941;DHT22;62001;53.366;6.636;2022-07-05T03:30:04;11.60;99.90
52941;DHT22;62001;53.366;6.636;2022-07-05T03:32:30;11.60;99.90
52941;DHT22;62001;53.366;6.636;2022-07-05T03:34:56;11.60;99.90
52941;DHT22;62001;53.366;6.636;2022-07-05T03:37:23;11.60;99.90
52941;DHT22;62001;53.366;6.636;2022-07-05T03:39:49;11.60;99.90
52941;DHT22;62001;53.366;6.636;2022-07-05T03:42:14;11.60;99.90
52941;DHT22;62001;53.366;6.636;2022-07-05T03:44:40;11.60;99.90
52941;DHT22;62001;53.366;6.636;2022-07-05T03:47:06;11.60;99.90
52941;DHT22;62001;53.366;6.636;2022-07-05T03:49:31;11.60;99.90
52941;DHT22;62001;53.366;6.636;2022-07-05T03:51:57;11.70;99.90
52941;DHT22;62001;53.366;6.636;2022-07-05T03:54:23;11.70;99.90
52941;DHT22;62001;53.366;6.636;2022-07-05T03:56:49;11.70;99.90
52941;DHT22;62001;53.366;6.636;2022-07-05T03:59:15;11.80;99.90
52941;DHT22;62001;53.366;6.636;2022-07-05T04:01:41;11.80;99.90
52941;DHT22;62001;53.366;6.636;2022-07-05T04:04:07;11.90;99.90
52941;DHT22;62001;53.366;6.636;2022-07-05T04:06:32;12.00;99.90
52941;DHT22;62001;53.366;6.636;2022-07-05T04:08:58;12.00;99.90
52941;DHT22;62001;53.366;6.636;2022-07-05T04:11:24;12.10;99.90
52941;DHT22;62001;53.366;6.636;2022-07-05T04:13:50;12.20;99.90
52941;DHT22;62001;53.366;6.636;2022-07-05T04:16:15;12.30;99.90
52941;DHT22;62001;53.366;6.636;2022-07-05T04:18:41;12.30;99.90
52941;DHT22;62001;53.366;6.636;2022-07-05T04:21:07;12.30;99.90
52941;DHT22;62001;53.366;6.636;2022-07-05T04:23:33;12.30;99.90
52941;DHT22;62001;53.366;6.636;2022-07-05T04:26:01;12.40;99.90
52941;DHT22;62001;53.366;6.636;2022-07-05T04:28:27;12.40;99.90
52941;DHT22;62001;53.366;6.636;2022-07-05T04:30:58;12.40;99.90
52941;DHT22;62001;53.366;6.636;2022-07-05T04:33:24;12.50;99.90
52941;DHT22;62001;53.366;6.636;2022-07-05T04:35:51;12.50;99.90
52941;DHT22;62001;53.366;6.636;2022-07-05T04:38:16;12.60;99.90
52941;DHT22;62001;53.366;6.636;2022-07-05T04:40:42;12.70;99.90
52941;DHT22;62001;53.366;6.636;2022-07-05T04:43:08;12.90;99.90
52941;DHT22;62001;53.366;6.636;2022-07-05T04:45:34;13.00;99.90
52941;DHT22;62001;53.366;6.636;2022-07-05T04:48:00;13.10;99.90
52941;DHT22;62001;53.366;6.636;2022-07-05T04:50:25;13.20;99.90
52941;DHT22;62001;53.366;6.636;2022-07-05T04:52:51;13.30;99.90
52941;DHT22;62001;53.366;6.636;2022-07-05T04:55:18;13.50;99.90
52941;DHT22;62001;53.366;6.636;2022-07-05T04:57:44;13.60;99.90
52941;DHT22;62001;53.366;6.636;2022-07-05T05:00:11;13.80;99.90
52941;DHT22;62001;53.366;6.636;2022-07-05T05:02:38;13.90;99.90
52941;DHT22;62001;53.366;6.636;2022-07-05T05:05:04;14.40;99.90
52941;DHT22;62001;53.366;6.636;2022-07-05T05:07:30;15.30;99.90
52941;DHT22;62001;53.366;6.636;2022-07-05T05:09:55;16.00;99.90
52941;DHT22;62001;53.366;6.636;2022-07-05T05:12:21;16.70;99.90
52941;DHT22;62001;53.366;6.636;2022-07-05T05:14:48;17.20;99.90
52941;DHT22;62001;53.366;6.636;2022-07-05T05:17:14;17.90;99.90
52941;DHT22;62001;53.366;6.636;2022-07-05T05:19:40;19.00;99.90
52941;DHT22;62001;53.366;6.636;2022-07-05T05:22:06;20.30;99.90
52941;DHT22;62001;53.366;6.636;2022-07-05T05:24:31;21.50;99.90
52941;DHT22;62001;53.366;6.636;2022-07-05T05:27:00;22.70;99.90
52941;DHT22;62001;53.366;6.636;2022-07-05T05:29:26;23.70;99.90
52941;DHT22;62001;53.366;6.636;2022-07-05T05:31:53;24.60;99.90
52941;DHT22;62001;53.366;6.636;2022-07-05T05:34:19;25.40;99.80
52941;DHT22;62001;53.366;6.636;2022-07-05T05:36:44;26.20;97.60
52941;DHT22;62001;53.366;6.636;2022-07-05T05:39:10;27.00;95.20
52941;DHT22;62001;53.366;6.636;2022-07-05T05:41:36;27.70;92.10
52941;DHT22;62001;53.366;6.636;2022-07-05T05:44:03;28.10;88.60
52941;DHT22;62001;53.366;6.636;2022-07-05T05:46:28;28.60;83.30
52941;DHT22;62001;53.366;6.636;2022-07-05T05:48:54;29.20;80.30
52941;DHT22;62001;53.366;6.636;2022-07-05T05:51:20;29.60;75.60
52941;DHT22;62001;53.366;6.636;2022-07-05T05:53:46;30.00;72.60
52941;DHT22;62001;53.366;6.636;2022-07-05T05:56:12;30.30;70.50
52941;DHT22;62001;53.366;6.636;2022-07-05T05:58:38;30.40;68.60
52941;DHT22;62001;53.366;6.636;2022-07-05T06:01:04;30.60;67.70
52941;DHT22;62001;53.366;6.636;2022-07-05T06:03:30;31.00;65.40
52941;DHT22;62001;53.366;6.636;2022-07-05T06:05:56;31.30;64.50
52941;DHT22;62001;53.366;6.636;2022-07-05T06:08:22;31.60;62.60
52941;DHT22;62001;53.366;6.636;2022-07-05T06:10:49;31.40;60.40
52941;DHT22;62001;53.366;6.636;2022-07-05T06:13:15;30.30;60.40
52941;DHT22;62001;53.366;6.636;2022-07-05T06:15:42;29.30;62.00
52941;DHT22;62001;53.366;6.636;2022-07-05T06:18:08;29.00;63.10
52941;DHT22;62001;53.366;6.636;2022-07-05T06:20:36;28.90;64.20
52941;DHT22;62001;53.366;6.636;2022-07-05T06:23:03;29.00;64.30
52941;DHT22;62001;53.366;6.636;2022-07-05T06:25:30;28.80;64.50
52941;DHT22;62001;53.366;6.636;2022-07-05T06:28:04;28.40;64.50
52941;DHT22;62001;53.366;6.636;2022-07-05T06:30:32;28.20;65.30
52941;DHT22;62001;53.366;6.636;2022-07-05T06:32:58;28.00;64.80
52941;DHT22;62001;53.366;6.636;2022-07-05T06:35:25;27.30;65.60
52941;DHT22;62001;53.366;6.636;2022-07-05T06:37:53;26.90;65.90
52941;DHT22;62001;53.366;6.636;2022-07-05T06:42:52;26.20;67.70
52941;DHT22;62001;53.366;6.636;2022-07-05T06:45:21;25.90;69.30
52941;DHT22;62001;53.366;6.636;2022-07-05T06:48:04;26.00;69.20
52941;DHT22;62001;53.366;6.636;2022-07-05T06:50:33;26.00;69.90
52941;DHT22;62001;53.366;6.636;2022-07-05T06:53:01;25.50;68.40
52941;DHT22;62001;53.366;6.636;2022-07-05T06:55:27;25.00;70.30
52941;DHT22;62001;53.366;6.636;2022-07-05T06:58:01;24.80;71.70
52941;DHT22;62001;53.366;6.636;2022-07-05T07:00:29;24.50;71.90
52941;DHT22;62001;53.366;6.636;2022-07-05T07:02:55;24.20;73.00
52941;DHT22;62001;53.366;6.636;2022-07-05T07:05:21;23.90;74.00
52941;DHT22;62001;53.366;6.636;2022-07-05T07:07:46;23.60;74.90
52941;DHT22;62001;53.366;6.636;2022-07-05T07:10:31;23.30;76.10
52941;DHT22;62001;53.366;6.636;2022-07-05T07:12:57;23.10;77.40
52941;DHT22;62001;53.366;6.636;2022-07-05T07:15:23;22.90;80.20
52941;DHT22;62001;53.366;6.636;2022-07-05T07:17:50;22.90;80.40
52941;DHT22;62001;53.366;6.636;2022-07-05T07:20:16;22.70;81.50
52941;DHT22;62001;53.366;6.636;2022-07-05T07:22:42;22.60;82.30
52941;DHT22;62001;53.366;6.636;2022-07-05T07:25:08;22.60;84.20
52941;DHT22;62001;53.366;6.636;2022-07-05T07:27:44;22.40;83.60
52941;DHT22;62001;53.366;6.636;2022-07-05T07:30:12;22.20;83.40
52941;DHT22;62001;53.366;6.636;2022-07-05T07:32:38;22.10;84.70
52941;DHT22;62001;53.366;6.636;2022-07-05T07:35:04;22.00;85.70
52941;DHT22;62001;53.366;6.636;2022-07-05T07:37:30;21.80;86.30
52941;DHT22;62001;53.366;6.636;2022-07-05T07:39:56;21.60;86.90
52941;DHT22;62001;53.366;6.636;2022-07-05T07:42:22;21.30;87.00
52941;DHT22;62001;53.366;6.636;2022-07-05T07:44:48;20.90;88.00
52941;DHT22;62001;53.366;6.636;2022-07-05T07:47:14;20.60;90.20
52941;DHT22;62001;53.366;6.636;2022-07-05T07:49:39;20.30;91.10
52941;DHT22;62001;53.366;6.636;2022-07-05T07:52:07;20.10;92.50
52941;DHT22;62001;53.366;6.636;2022-07-05T07:54:33;20.10;94.10
52941;DHT22;62001;53.366;6.636;2022-07-05T07:56:58;20.00;95.10
52941;DHT22;62001;53.366;6.636;2022-07-05T07:59:30;20.00;96.00
52941;DHT22;62001;53.366;6.636;2022-07-05T08:01:56;19.90;95.70
52941;DHT22;62001;53.366;6.636;2022-07-05T08:04:22;19.80;95.80
52941;DHT22;62001;53.366;6.636;2022-07-05T08:06:48;19.80;95.40
52941;DHT22;62001;53.366;6.636;2022-07-05T08:09:14;19.90;95.00
52941;DHT22;62001;53.366;6.636;2022-07-05T08:11:40;19.90;95.00
52941;DHT22;62001;53.366;6.636;2022-07-05T08:14:06;19.80;94.30
52941;DHT22;62001;53.366;6.636;2022-07-05T08:16:32;19.70;93.50
52941;DHT22;62001;53.366;6.636;2022-07-05T08:18:58;19.70;93.40
52941;DHT22;62001;53.366;6.636;2022-07-05T08:21:42;19.60;94.40
52941;DHT22;62001;53.366;6.636;2022-07-05T08:24:10;19.60;95.90
52941;DHT22;62001;53.366;6.636;2022-07-05T08:26:37;19.60;96.70
52941;DHT22;62001;53.366;6.636;2022-07-05T08:29:05;19.70;97.10
52941;DHT22;62001;53.366;6.636;2022-07-05T08:31:33;19.70;96.30
52941;DHT22;62001;53.366;6.636;2022-07-05T08:33:59;19.70;95.80
52941;DHT22;62001;53.366;6.636;2022-07-05T08:36:25;19.70;96.00
52941;DHT22;62001;53.366;6.636;2022-07-05T08:38:51;19.60;96.30
52941;DHT22;62001;53.366;6.636;2022-07-05T08:41:19;19.50;96.80
52941;DHT22;62001;53.366;6.636;2022-07-05T08:43:48;19.40;97.60
52941;DHT22;62001;53.366;6.636;2022-07-05T08:46:15;19.40;98.20
52941;DHT22;62001;53.366;6.636;2022-07-05T08:48:42;19.30;98.80
52941;DHT22;62001;53.366;6.636;2022-07-05T08:51:17;19.20;99.20
52941;DHT22;62001;53.366;6.636;2022-07-05T08:53:44;19.10;99.10
52941;DHT22;62001;53.366;6.636;2022-07-05T08:56:12;19.10;99.30
52941;DHT22;62001;53.366;6.636;2022-07-05T08:58:39;19.10;99.50
52941;DHT22;62001;53.366;6.636;2022-07-05T09:01:06;19.20;99.30
52941;DHT22;62001;53.366;6.636;2022-07-05T09:03:52;19.30;99.50
52941;DHT22;62001;53.366;6.636;2022-07-05T09:06:21;19.40;98.90
52941;DHT22;62001;53.366;6.636;2022-07-05T09:08:48;19.50;98.20
52941;DHT22;62001;53.366;6.636;2022-07-05T09:11:17;19.50;98.20
52941;DHT22;62001;53.366;6.636;2022-07-05T09:13:53;19.50;98.20
52941;DHT22;62001;53.366;6.636;2022-07-05T09:16:19;19.60;98.60
52941;DHT22;62001;53.366;6.636;2022-07-05T09:18:53;19.60;98.50
52941;DHT22;62001;53.366;6.636;2022-07-05T09:21:24;19.80;99.20
52941;DHT22;62001;53.366;6.636;2022-07-05T09:23:55;19.90;99.40
52941;DHT22;62001;53.366;6.636;2022-07-05T09:28:58;19.90;99.00
52941;DHT22;62001;53.366;6.636;2022-07-05T09:31:38;19.70;99.40
52941;DHT22;62001;53.366;6.636;2022-07-05T09:34:06;19.60;99.70
52941;DHT22;62001;53.366;6.636;2022-07-05T09:36:51;19.40;99.90
52941;DHT22;62001;53.366;6.636;2022-07-05T09:42:11;19.00;99.90
52941;DHT22;62001;53.366;6.636;2022-07-05T09:44:47;19.00;99.90
52941;DHT22;62001;53.366;6.636;2022-07-05T09:47:17;18.90;99.90
52941;DHT22;62001;53.366;6.636;2022-07-05T09:49:50;19.00;99.90
52941;DHT22;62001;53.366;6.636;2022-07-05T09:52:35;19.00;99.90
52941;DHT22;62001;53.366;6.636;2022-07-05T09:55:04;19.10;99.90
52941;DHT22;62001;53.366;6.636;2022-07-05T09:57:32;19.30;99.90
52941;DHT22;62001;53.366;6.636;2022-07-05T09:59:59;19.50;99.90
52941;DHT22;62001;53.366;6.636;2022-07-05T10:02:42;19.60;99.90
52941;DHT22;62001;53.366;6.636;2022-07-05T10:07:43;19.60;99.60
52941;DHT22;62001;53.366;6.636;2022-07-05T10:10:12;19.60;99.70
52941;DHT22;62001;53.366;6.636;2022-07-05T10:12:40;19.60;99.40
52941;DHT22;62001;53.366;6.636;2022-07-05T10:15:08;19.60;99.90
52941;DHT22;62001;53.366;6.636;2022-07-05T10:17:39;19.60;99.90
52941;DHT22;62001;53.366;6.636;2022-07-05T10:20:16;19.60;99.90
52941;DHT22;62001;53.366;6.636;2022-07-05T10:22:46;19.70;99.90
52941;DHT22;62001;53.366;6.636;2022-07-05T10:25:13;19.90;99.90
52941;DHT22;62001;53.366;6.636;2022-07-05T10:27:39;19.90;99.80
52941;DHT22;62001;53.366;6.636;2022-07-05T10:30:06;20.00;99.50
52941;DHT22;62001;53.366;6.636;2022-07-05T10:32:34;20.00;99.70
52941;DHT22;62001;53.366;6.636;2022-07-05T10:35:01;20.10;99.60
52941;DHT22;62001;53.366;6.636;2022-07-05T10:37:30;20.10;99.90
52941;DHT22;62001;53.366;6.636;2022-07-05T10:39:57;20.00;99.90
52941;DHT22;62001;53.366;6.636;2022-07-05T10:42:27;19.90;99.90
52941;DHT22;62001;53.366;6.636;2022-07-05T10:44:53;19.70;99.90
52941;DHT22;62001;53.366;6.636;2022-07-05T10:47:19;19.50;99.90
52941;DHT22;62001;53.366;6.636;2022-07-05T10:50:03;19.40;99.90
52941;DHT22;62001;53.366;6.636;2022-07-05T10:52:29;19.20;99.90
52941;DHT22;62001;53.366;6.636;2022-07-05T10:57:42;18.90;99.90
52941;DHT22;62001;53.366;6.636;2022-07-05T11:00:10;18.80;99.90
52941;DHT22;62001;53.366;6.636;2022-07-05T11:02:37;18.60;99.90
52941;DHT22;62001;53.366;6.636;2022-07-05T11:05:03;18.50;99.90
52941;DHT22;62001;53.366;6.636;2022-07-05T11:07:57;18.40;99.90
52941;DHT22;62001;53.366;6.636;2022-07-05T11:10:23;18.20;99.90
52941;DHT22;62001;53.366;6.636;2022-07-05T11:12:49;18.20;99.90
52941;DHT22;62001;53.366;6.636;2022-07-05T11:15:15;18.10;99.90
52941;DHT22;62001;53.366;6.636;2022-07-05T11:17:42;18.20;99.90
52941;DHT22;62001;53.366;6.636;2022-07-05T11:20:15;18.30;99.90
52941;DHT22;62001;53.366;6.636;2022-07-05T11:23:03;18.50;99.90
52941;DHT22;62001;53.366;6.636;2022-07-05T11:25:31;18.60;99.90
52941;DHT22;62001;53.366;6.636;2022-07-05T11:28:21;18.90;99.90
52941;DHT22;62001;53.366;6.636;2022-07-05T11:30:59;19.20;99.90
52941;DHT22;62001;53.366;6.636;2022-07-05T11:33:41;19.30;99.90
52941;DHT22;62001;53.366;6.636;2022-07-05T11:36:24;19.30;99.90
52941;DHT22;62001;53.366;6.636;2022-07-05T11:39:11;19.30;99.90
52941;DHT22;62001;53.366;6.636;2022-07-05T11:41:38;19.40;99.90
52941;DHT22;62001;53.366;6.636;2022-07-05T11:44:06;19.40;99.90
52941;DHT22;62001;53.366;6.636;2022-07-05T11:46:35;19.50;99.90
52941;DHT22;62001;53.366;6.636;2022-07-05T11:49:01;19.40;99.90
52941;DHT22;62001;53.366;6.636;2022-07-05T11:51:27;19.30;99.90
52941;DHT22;62001;53.366;6.636;2022-07-05T11:53:52;19.20;99.90
52941;DHT22;62001;53.366;6.636;2022-07-05T11:56:18;19.10;99.90
52941;DHT22;62001;53.366;6.636;2022-07-05T11:58:44;19.00;99.90
52941;DHT22;62001;53.366;6.636;2022-07-05T12:01:10;18.90;99.90
52941;DHT22;62001;53.366;6.636;2022-07-05T12:03:36;18.80;99.90
52941;DHT22;62001;53.366;6.636;2022-07-05T12:06:14;18.80;99.90
52941;DHT22;62001;53.366;6.636;2022-07-05T12:08:43;18.60;99.90
52941;DHT22;62001;53.366;6.636;2022-07-05T12:11:12;18.50;99.90
52941;DHT22;62001;53.366;6.636;2022-07-05T12:13:57;18.50;99.90
52941;DHT22;62001;53.366;6.636;2022-07-05T12:16:23;18.50;99.90
52941;DHT22;62001;53.366;6.636;2022-07-05T12:18:53;18.60;99.90
52941;DHT22;62001;53.366;6.636;2022-07-05T12:21:21;18.70;99.90
52941;DHT22;62001;53.366;6.636;2022-07-05T12:23:48;18.80;99.90
52941;DHT22;62001;53.366;6.636;2022-07-05T12:26:15;18.90;99.70
52941;DHT22;62001;53.366;6.636;2022-07-05T12:28:42;18.90;99.60
52941;DHT22;62001;53.366;6.636;2022-07-05T12:31:37;18.90;99.60
52941;DHT22;62001;53.366;6.636;2022-07-05T12:34:17;19.00;99.90
52941;DHT22;62001;53.366;6.636;2022-07-05T12:36:43;19.10;99.90
52941;DHT22;62001;53.366;6.636;2022-07-05T12:39:09;19.20;99.20
52941;DHT22;62001;53.366;6.636;2022-07-05T12:41:42;19.20;99.80
52941;DHT22;62001;53.366;6.636;2022-07-05T12:44:08;19.30;99.90
52941;DHT22;62001;53.366;6.636;2022-07-05T12:46:38;19.40;99.90
52941;DHT22;62001;53.366;6.636;2022-07-05T12:49:04;19.40;99.90
52941;DHT22;62001;53.366;6.636;2022-07-05T12:51:34;19.60;99.90
52941;DHT22;62001;53.366;6.636;2022-07-05T12:54:20;19.60;99.90
52941;DHT22;62001;53.366;6.636;2022-07-05T12:57:06;19.60;99.70
52941;DHT22;62001;53.366;6.636;2022-07-05T13:00:02;19.50;98.90
52941;DHT22;62001;53.366;6.636;2022-07-05T13:02:39;19.50;98.60
52941;DHT22;62001;53.366;6.636;2022-07-05T13:05:07;19.50;98.60
52941;DHT22;62001;53.366;6.636;2022-07-05T13:07:41;19.60;98.10
52941;DHT22;62001;53.366;6.636;2022-07-05T13:10:27;19.50;96.50
52941;DHT22;62001;53.366;6.636;2022-07-05T13:12:59;19.40;96.90
52941;DHT22;62001;53.366;6.636;2022-07-05T13:15:25;19.30;97.90
52941;DHT22;62001;53.366;6.636;2022-07-05T13:17:51;19.40;98.50
52941;DHT22;62001;53.366;6.636;2022-07-05T13:20:18;19.40;98.00
52941;DHT22;62001;53.366;6.636;2022-07-05T13:22:46;19.60;97.80
52941;DHT22;62001;53.366;6.636;2022-07-05T13:25:13;19.80;96.80
52941;DHT22;62001;53.366;6.636;2022-07-05T13:27:39;20.10;96.20
52941;DHT22;62001;53.366;6.636;2022-07-05T13:30:06;20.20;96.10
52941;DHT22;62001;53.366;6.636;2022-07-05T13:32:32;20.20;95.20
52941;DHT22;62001;53.366;6.636;2022-07-05T13:34:58;20.10;94.50
52941;DHT22;62001;53.366;6.636;2022-07-05T13:37:24;20.00;94.20
52941;DHT22;62001;53.366;6.636;2022-07-05T13:39:50;20.00;94.30
52941;DHT22;62001;53.366;6.636;2022-07-05T13:42:16;20.10;95.50
52941;DHT22;62001;53.366;6.636;2022-07-05T13:44:41;20.10;94.90
52941;DHT22;62001;53.366;6.636;2022-07-05T13:47:07;20.10;95.00
52941;DHT22;62001;53.366;6.636;2022-07-05T13:49:33;20.00;95.80
52941;DHT22;62001;53.366;6.636;2022-07-05T13:51:59;20.00;95.70
52941;DHT22;62001;53.366;6.636;2022-07-05T13:54:30;19.90;95.60
52941;DHT22;62001;53.366;6.636;2022-07-05T13:56:55;19.70;95.00
52941;DHT22;62001;53.366;6.636;2022-07-05T13:59:21;19.60;95.30
52941;DHT22;62001;53.366;6.636;2022-07-05T14:01:47;19.50;95.50
52941;DHT22;62001;53.366;6.636;2022-07-05T14:04:13;19.40;96.20
52941;DHT22;62001;53.366;6.636;2022-07-05T14:06:39;19.40;96.40
52941;DHT22;62001;53.366;6.636;2022-07-05T14:09:04;19.40;96.00
52941;DHT22;62001;53.366;6.636;2022-07-05T14:11:30;19.40;96.20
52941;DHT22;62001;53.366;6.636;2022-07-05T14:13:56;19.50;96.90
52941;DHT22;62001;53.366;6.636;2022-07-05T14:16:23;19.70;96.80
52941;DHT22;62001;53.366;6.636;2022-07-05T14:18:50;20.00;96.30
52941;DHT22;62001;53.366;6.636;2022-07-05T14:21:16;20.20;95.20
52941;DHT22;62001;53.366;6.636;2022-07-05T14:23:45;20.30;94.80
52941;DHT22;62001;53.366;6.636;2022-07-05T14:26:13;20.40;94.10
52941;DHT22;62001;53.366;6.636;2022-07-05T14:28:39;20.50;95.20
52941;DHT22;62001;53.366;6.636;2022-07-05T14:31:05;20.80;93.20
52941;DHT22;62001;53.366;6.636;2022-07-05T14:33:31;20.80;92.50
52941;DHT22;62001;53.366;6.636;2022-07-05T14:35:56;20.60;92.70
52941;DHT22;62001;53.366;6.636;2022-07-05T14:38:22;20.50;93.30
52941;DHT22;62001;53.366;6.636;2022-07-05T14:40:48;20.40;93.60
52941;DHT22;62001;53.366;6.636;2022-07-05T14:43:14;20.20;93.50
52941;DHT22;62001;53.366;6.636;2022-07-05T14:45:40;20.00;93.40
52941;DHT22;62001;53.366;6.636;2022-07-05T14:48:05;19.80;93.20
52941;DHT22;62001;53.366;6.636;2022-07-05T14:50:31;19.80;93.70
52941;DHT22;62001;53.366;6.636;2022-07-05T14:52:57;19.80;93.80
52941;DHT22;62001;53.366;6.636;2022-07-05T14:55:23;19.70;94.50
52941;DHT22;62001;53.366;6.636;2022-07-05T14:57:49;19.60;94.40
52941;DHT22;62001;53.366;6.636;2022-07-05T15:00:18;19.50;94.90
52941;DHT22;62001;53.366;6.636;2022-07-05T15:02:43;19.50;95.30
52941;DHT22;62001;53.366;6.636;2022-07-05T15:05:09;19.50;95.30
52941;DHT22;62001;53.366;6.636;2022-07-05T15:07:37;19.60;95.70
52941;DHT22;62001;53.366;6.636;2022-07-05T15:10:04;19.60;95.50
52941;DHT22;62001;53.366;6.636;2022-07-05T15:12:30;19.50;95.70
52941;DHT22;62001;53.366;6.636;2022-07-05T15:14:56;19.30;96.00
52941;DHT22;62001;53.366;6.636;2022-07-05T15:17:21;19.20;96.80
52941;DHT22;62001;53.366;6.636;2022-07-05T15:19:47;19.00;96.90
52941;DHT22;62001;53.366;6.636;2022-07-05T15:22:13;18.90;97.20
52941;DHT22;62001;53.366;6.636;2022-07-05T15:24:42;18.90;97.50
52941;DHT22;62001;53.366;6.636;2022-07-05T15:27:07;19.00;97.40
52941;DHT22;62001;53.366;6.636;2022-07-05T15:29:36;19.10;97.50
52941;DHT22;62001;53.366;6.636;2022-07-05T15:32:01;19.30;97.50
52941;DHT22;62001;53.366;6.636;2022-07-05T15:34:27;19.40;97.20
52941;DHT22;62001;53.366;6.636;2022-07-05T15:36:53;19.50;97.10
52941;DHT22;62001;53.366;6.636;2022-07-05T15:39:19;19.50;97.20
52941;DHT22;62001;53.366;6.636;2022-07-05T15:41:45;19.70;96.80
52941;DHT22;62001;53.366;6.636;2022-07-05T15:44:10;19.90;96.50
52941;DHT22;62001;53.366;6.636;2022-07-05T15:46:36;20.00;95.50
52941;DHT22;62001;53.366;6.636;2022-07-05T15:49:22;19.90;95.10